sensor_id;sensor_type;location;lat;lon;timestamp;pressure;altitude;pressure_sealevel;temperature;humidity
54038;BME280;39954;48.844;9.726;2023-12-22T00:00:38;94723.38;;;3.07;100.00
54038;BME280;39954;48.844;9.726;2023-12-22T00:01:43;94713.22;;;3.05;100.00
54038;BME280;39954;48.844;9.726;2023-12-22T00:02:45;94709.13;;;3.01;100.00
54038;BME280;39954;48.844;9.726;2023-12-22T00:03:50;94715.16;;;3.00;100.00
54038;BME280;39954;48.844;9.726;2023-12-22T00:04:52;94731.25;;;3.04;100.00
54038;BME280;39954;48.844;9.726;2023-12-22T00:05:57;94730.25;;;3.06;100.00
54038;BME280;39954;48.844;9.726;2023-12-22T00:06:59;94718.19;;;3.08;100.00
54038;BME280;39954;48.844;9.726;2023-12-22T00:08:07;94709.56;;;3.09;100.00
54038;BME280;39954;48.844;9.726;2023-12-22T00:09:09;94693.41;;;3.07;100.00
54038;BME280;39954;48.844;9.726;2023-12-22T00:10:14;94705.50;;;3.05;100.00
54038;BME280;39954;48.844;9.726;2023-12-22T00:11:16;94702.78;;;3.08;100.00
54038;BME280;39954;48.844;9.726;2023-12-22T00:12:21;94703.47;;;3.12;100.00
54038;BME280;39954;48.844;9.726;2023-12-22T00:13:23;94722.19;;;3.14;100.00
54038;BME280;39954;48.844;9.726;2023-12-22T00:14:25;94712.50;;;3.19;100.00
54038;BME280;39954;48.844;9.726;2023-12-22T00:15:30;94696.38;;;3.17;100.00
54038;BME280;39954;48.844;9.726;2023-12-22T00:16:32;94707.63;;;3.14;100.00
54038;BME280;39954;48.844;9.726;2023-12-22T00:17:37;94706.84;;;3.12;100.00
54038;BME280;39954;48.844;9.726;2023-12-22T00:18:39;94700.28;;;3.07;100.00
54038;BME280;39954;48.844;9.726;2023-12-22T00:19:44;94687.25;;;3.11;100.00
54038;BME280;39954;48.844;9.726;2023-12-22T00:20:46;94693.34;;;3.09;100.00
54038;BME280;39954;48.844;9.726;2023-12-22T00:21:51;94705.50;;;3.05;100.00
54038;BME280;39954;48.844;9.726;2023-12-22T00:22:53;94709.72;;;3.06;100.00
54038;BME280;39954;48.844;9.726;2023-12-22T00:24:00;94715.84;;;3.04;100.00
54038;BME280;39954;48.844;9.726;2023-12-22T00:25:03;94717.66;;;3.02;100.00
54038;BME280;39954;48.844;9.726;2023-12-22T00:26:09;94728.88;;;2.99;100.00
54038;BME280;39954;48.844;9.726;2023-12-22T00:27:12;94727.91;;;3.02;100.00
54038;BME280;39954;48.844;9.726;2023-12-22T00:28:20;94719.31;;;3.03;100.00
54038;BME280;39954;48.844;9.726;2023-12-22T00:29:22;94727.59;;;3.08;100.00
54038;BME280;39954;48.844;9.726;2023-12-22T00:30:30;94734.56;;;3.06;100.00
54038;BME280;39954;48.844;9.726;2023-12-22T00:31:32;94739.88;;;3.03;100.00
54038;BME280;39954;48.844;9.726;2023-12-22T00:32:37;94732.16;;;3.03;100.00
54038;BME280;39954;48.844;9.726;2023-12-22T00:33:39;94732.97;;;3.03;100.00
54038;BME280;39954;48.844;9.726;2023-12-22T00:34:41;94740.59;;;3.05;100.00
54038;BME280;39954;48.844;9.726;2023-12-22T00:35:46;94755.84;;;2.90;100.00
54038;BME280;39954;48.844;9.726;2023-12-22T00:36:48;94726.69;;;2.74;100.00
54038;BME280;39954;48.844;9.726;2023-12-22T00:37:53;94722.25;;;2.41;100.00
54038;BME280;39954;48.844;9.726;2023-12-22T00:38:56;94737.94;;;2.35;100.00
54038;BME280;39954;48.844;9.726;2023-12-22T00:40:05;94759.13;;;2.20;100.00
54038;BME280;39954;48.844;9.726;2023-12-22T00:41:10;94761.69;;;2.20;100.00
54038;BME280;39954;48.844;9.726;2023-12-22T00:42:15;94763.69;;;2.13;100.00
54038;BME280;39954;48.844;9.726;2023-12-22T00:43:17;94770.31;;;1.98;100.00
54038;BME280;39954;48.844;9.726;2023-12-22T00:44:22;94777.50;;;1.90;100.00
54038;BME280;39954;48.844;9.726;2023-12-22T00:45:25;94782.09;;;1.84;100.00
54038;BME280;39954;48.844;9.726;2023-12-22T00:46:30;94774.59;;;1.79;100.00
54038;BME280;39954;48.844;9.726;2023-12-22T00:47:32;94767.66;;;1.81;100.00
54038;BME280;39954;48.844;9.726;2023-12-22T00:48:36;94774.41;;;1.84;100.00
54038;BME280;39954;48.844;9.726;2023-12-22T00:49:41;94789.06;;;1.80;100.00
54038;BME280;39954;48.844;9.726;2023-12-22T00:50:43;94802.16;;;1.74;100.00
54038;BME280;39954;48.844;9.726;2023-12-22T00:51:49;94807.47;;;1.69;100.00
54038;BME280;39954;48.844;9.726;2023-12-22T00:52:51;94805.03;;;1.66;100.00
54038;BME280;39954;48.844;9.726;2023-12-22T00:53:57;94812.03;;;1.63;100.00
54038;BME280;39954;48.844;9.726;2023-12-22T00:55:00;94815.78;;;1.54;100.00
54038;BME280;39954;48.844;9.726;2023-12-22T00:56:07;94823.59;;;1.51;100.00
54038;BME280;39954;48.844;9.726;2023-12-22T00:57:14;94820.72;;;1.38;100.00
54038;BME280;39954;48.844;9.726;2023-12-22T00:58:19;94832.59;;;1.39;100.00
54038;BME280;39954;48.844;9.726;2023-12-22T00:59:21;94848.09;;;1.36;100.00
54038;BME280;39954;48.844;9.726;2023-12-22T01:00:24;94842.19;;;1.34;100.00
54038;BME280;39954;48.844;9.726;2023-12-22T01:01:28;94829.66;;;1.28;100.00
54038;BME280;39954;48.844;9.726;2023-12-22T01:02:31;94822.09;;;1.25;100.00
54038;BME280;39954;48.844;9.726;2023-12-22T01:03:35;94813.78;;;1.20;100.00
54038;BME280;39954;48.844;9.726;2023-12-22T01:04:38;94803.75;;;1.15;100.00
54038;BME280;39954;48.844;9.726;2023-12-22T01:05:43;94811.50;;;1.12;100.00
54038;BME280;39954;48.844;9.726;2023-12-22T01:06:45;94821.88;;;1.09;100.00
54038;BME280;39954;48.844;9.726;2023-12-22T01:07:50;94815.94;;;1.08;100.00
54038;BME280;39954;48.844;9.726;2023-12-22T01:08:53;94804.69;;;1.13;100.00
54038;BME280;39954;48.844;9.726;2023-12-22T01:09:57;94807.31;;;1.11;100.00
54038;BME280;39954;48.844;9.726;2023-12-22T01:11:03;94793.69;;;1.10;100.00
54038;BME280;39954;48.844;9.726;2023-12-22T01:12:10;94797.91;;;1.11;100.00
54038;BME280;39954;48.844;9.726;2023-12-22T01:13:13;94794.47;;;1.13;100.00
54038;BME280;39954;48.844;9.726;2023-12-22T01:14:17;94779.84;;;1.15;100.00
54038;BME280;39954;48.844;9.726;2023-12-22T01:15:20;94779.84;;;1.15;100.00
54038;BME280;39954;48.844;9.726;2023-12-22T01:16:25;94773.91;;;1.14;100.00
54038;BME280;39954;48.844;9.726;2023-12-22T01:17:27;94774.00;;;1.13;100.00
54038;BME280;39954;48.844;9.726;2023-12-22T01:18:32;94775.59;;;1.15;100.00
54038;BME280;39954;48.844;9.726;2023-12-22T01:19:35;94776.47;;;1.14;100.00
54038;BME280;39954;48.844;9.726;2023-12-22T01:20:43;94769.31;;;1.22;100.00
54038;BME280;39954;48.844;9.726;2023-12-22T01:21:45;94782.09;;;1.22;100.00
54038;BME280;39954;48.844;9.726;2023-12-22T01:22:53;94778.59;;;1.25;100.00
54038;BME280;39954;48.844;9.726;2023-12-22T01:23:56;94778.19;;;1.34;100.00
54038;BME280;39954;48.844;9.726;2023-12-22T01:25:01;94769.50;;;1.38;100.00
54038;BME280;39954;48.844;9.726;2023-12-22T01:26:03;94768.75;;;1.36;100.00
54038;BME280;39954;48.844;9.726;2023-12-22T01:27:12;94772.91;;;1.39;100.00
54038;BME280;39954;48.844;9.726;2023-12-22T01:28:20;94772.00;;;1.40;100.00
54038;BME280;39954;48.844;9.726;2023-12-22T01:29:26;94756.72;;;1.38;100.00
54038;BME280;39954;48.844;9.726;2023-12-22T01:30:29;94760.06;;;1.40;100.00
54038;BME280;39954;48.844;9.726;2023-12-22T01:31:39;94776.94;;;1.44;100.00
54038;BME280;39954;48.844;9.726;2023-12-22T01:32:41;94767.47;;;1.46;100.00
54038;BME280;39954;48.844;9.726;2023-12-22T01:33:46;94765.78;;;1.45;100.00
54038;BME280;39954;48.844;9.726;2023-12-22T01:34:48;94764.91;;;1.46;100.00
54038;BME280;39954;48.844;9.726;2023-12-22T01:35:50;94771.69;;;1.47;100.00
54038;BME280;39954;48.844;9.726;2023-12-22T01:36:55;94771.69;;;1.47;100.00
54038;BME280;39954;48.844;9.726;2023-12-22T01:37:57;94763.16;;;1.47;100.00
54038;BME280;39954;48.844;9.726;2023-12-22T01:39:02;94776.63;;;1.52;100.00
54038;BME280;39954;48.844;9.726;2023-12-22T01:40:08;94765.56;;;1.51;100.00
54038;BME280;39954;48.844;9.726;2023-12-22T01:41:10;94778.97;;;1.56;100.00
54038;BME280;39954;48.844;9.726;2023-12-22T01:42:18;94772.84;;;1.61;100.00
54038;BME280;39954;48.844;9.726;2023-12-22T01:43:20;94771.78;;;1.65;100.00
54038;BME280;39954;48.844;9.726;2023-12-22T01:44:26;94771.59;;;1.69;100.00
54038;BME280;39954;48.844;9.726;2023-12-22T01:45:28;94779.41;;;1.66;100.00
54038;BME280;39954;48.844;9.726;2023-12-22T01:46:30;94766.63;;;1.66;100.00
54038;BME280;39954;48.844;9.726;2023-12-22T01:47:36;94774.22;;;1.68;100.00
54038;BME280;39954;48.844;9.726;2023-12-22T01:48:39;94776.72;;;1.69;100.00
54038;BME280;39954;48.844;9.726;2023-12-22T01:49:41;94774.22;;;1.68;100.00
54038;BME280;39954;48.844;9.726;2023-12-22T01:50:46;94765.56;;;1.70;100.00
54038;BME280;39954;48.844;9.726;2023-12-22T01:51:49;94766.63;;;1.66;100.00
54038;BME280;39954;48.844;9.726;2023-12-22T01:52:54;94770.00;;;1.67;100.00
54038;BME280;39954;48.844;9.726;2023-12-22T01:53:57;94773.34;;;1.69;100.00
54038;BME280;39954;48.844;9.726;2023-12-22T01:54:59;94771.41;;;1.74;100.00
54038;BME280;39954;48.844;9.726;2023-12-22T01:56:05;94776.41;;;1.77;100.00
54038;BME280;39954;48.844;9.726;2023-12-22T01:57:07;94772.03;;;1.79;100.00
54038;BME280;39954;48.844;9.726;2023-12-22T01:58:16;94770.88;;;1.86;100.00
54038;BME280;39954;48.844;9.726;2023-12-22T01:59:18;94776.69;;;1.90;100.00
54038;BME280;39954;48.844;9.726;2023-12-22T02:00:23;94762.13;;;1.90;100.00
54038;BME280;39954;48.844;9.726;2023-12-22T02:01:27;94770.53;;;1.94;100.00
54038;BME280;39954;48.844;9.726;2023-12-22T02:02:32;94781.66;;;1.93;100.00
54038;BME280;39954;48.844;9.726;2023-12-22T02:03:34;94787.66;;;1.93;100.00
54038;BME280;39954;48.844;9.726;2023-12-22T02:04:39;94772.88;;;1.98;100.00
54038;BME280;39954;48.844;9.726;2023-12-22T02:05:43;94760.16;;;1.97;100.00
54038;BME280;39954;48.844;9.726;2023-12-22T02:06:49;94769.50;;;1.98;100.00
54038;BME280;39954;48.844;9.726;2023-12-22T02:07:51;94773.50;;;2.04;100.00
54038;BME280;39954;48.844;9.726;2023-12-22T02:08:57;94775.94;;;2.07;100.00
54038;BME280;39954;48.844;9.726;2023-12-22T02:09:59;94755.31;;;2.10;100.00
54038;BME280;39954;48.844;9.726;2023-12-22T02:11:05;94743.25;;;2.12;100.00
54038;BME280;39954;48.844;9.726;2023-12-22T02:12:07;94759.41;;;2.14;100.00
54038;BME280;39954;48.844;9.726;2023-12-22T02:13:16;94756.84;;;2.14;100.00
54038;BME280;39954;48.844;9.726;2023-12-22T02:14:19;94749.16;;;2.14;100.00
54038;BME280;39954;48.844;9.726;2023-12-22T02:15:24;94746.50;;;2.15;100.00
54038;BME280;39954;48.844;9.726;2023-12-22T02:16:31;94735.91;;;2.23;100.00
54038;BME280;39954;48.844;9.726;2023-12-22T02:17:40;94750.38;;;2.24;100.00
54038;BME280;39954;48.844;9.726;2023-12-22T02:18:51;94769.09;;;2.26;100.00
54038;BME280;39954;48.844;9.726;2023-12-22T02:19:57;94773.06;;;2.33;100.00
54038;BME280;39954;48.844;9.726;2023-12-22T02:21:04;94760.22;;;2.33;100.00
54038;BME280;39954;48.844;9.726;2023-12-22T02:22:07;94748.28;;;2.32;100.00
54038;BME280;39954;48.844;9.726;2023-12-22T02:23:13;94754.13;;;2.36;100.00
54038;BME280;39954;48.844;9.726;2023-12-22T02:24:18;94739.38;;;2.22;100.00
54038;BME280;39954;48.844;9.726;2023-12-22T02:25:20;94738.00;;;2.15;100.00
54038;BME280;39954;48.844;9.726;2023-12-22T02:26:30;94734.59;;;2.14;100.00
54038;BME280;39954;48.844;9.726;2023-12-22T02:27:39;94730.59;;;2.09;100.00
54038;BME280;39954;48.844;9.726;2023-12-22T02:28:46;94740.00;;;2.08;100.00
54038;BME280;39954;48.844;9.726;2023-12-22T02:29:52;94745.69;;;2.15;100.00
54038;BME280;39954;48.844;9.726;2023-12-22T02:31:02;94745.25;;;2.24;100.00
54038;BME280;39954;48.844;9.726;2023-12-22T02:32:07;94733.06;;;2.29;100.00
54038;BME280;39954;48.844;9.726;2023-12-22T02:33:15;94760.53;;;2.27;100.00
54038;BME280;39954;48.844;9.726;2023-12-22T02:34:19;94765.50;;;2.30;100.00
54038;BME280;39954;48.844;9.726;2023-12-22T02:35:26;94753.84;;;2.42;100.00
54038;BME280;39954;48.844;9.726;2023-12-22T02:36:31;94766.47;;;2.46;100.00
54038;BME280;39954;48.844;9.726;2023-12-22T02:37:39;94761.72;;;2.56;100.00
54038;BME280;39954;48.844;9.726;2023-12-22T02:38:45;94780.22;;;2.63;100.00
54038;BME280;39954;48.844;9.726;2023-12-22T02:39:51;94778.38;;;2.66;100.00
54038;BME280;39954;48.844;9.726;2023-12-22T02:40:55;94813.69;;;2.79;100.00
54038;BME280;39954;48.844;9.726;2023-12-22T02:42:00;94791.41;;;2.98;100.00
54038;BME280;39954;48.844;9.726;2023-12-22T02:43:03;94787.66;;;3.05;100.00
54038;BME280;39954;48.844;9.726;2023-12-22T02:44:09;94774.13;;;3.02;100.00
54038;BME280;39954;48.844;9.726;2023-12-22T02:45:14;94767.19;;;3.04;100.00
54038;BME280;39954;48.844;9.726;2023-12-22T02:46:19;94766.09;;;3.08;100.00
54038;BME280;39954;48.844;9.726;2023-12-22T02:47:21;94771.34;;;3.06;100.00
54038;BME280;39954;48.844;9.726;2023-12-22T02:48:26;94777.16;;;3.10;100.00
54038;BME280;39954;48.844;9.726;2023-12-22T02:49:28;94776.31;;;3.09;100.00
54038;BME280;39954;48.844;9.726;2023-12-22T02:50:33;94748.69;;;3.14;100.00
54038;BME280;39954;48.844;9.726;2023-12-22T02:51:35;94747.63;;;3.19;100.00
54038;BME280;39954;48.844;9.726;2023-12-22T02:52:40;94759.47;;;3.21;100.00
54038;BME280;39954;48.844;9.726;2023-12-22T02:53:45;94732.16;;;3.20;100.00
54038;BME280;39954;48.844;9.726;2023-12-22T02:54:50;94751.00;;;3.19;100.00
54038;BME280;39954;48.844;9.726;2023-12-22T02:55:52;94716.75;;;3.20;100.00
54038;BME280;39954;48.844;9.726;2023-12-22T02:56:57;94736.31;;;3.23;100.00
54038;BME280;39954;48.844;9.726;2023-12-22T02:58:00;94735.34;;;3.25;100.00
54038;BME280;39954;48.844;9.726;2023-12-22T02:59:05;94740.31;;;3.28;100.00
54038;BME280;39954;48.844;9.726;2023-12-22T03:00:09;94754.81;;;3.29;100.00
54038;BME280;39954;48.844;9.726;2023-12-22T03:01:11;94728.31;;;3.29;100.00
54038;BME280;39954;48.844;9.726;2023-12-22T03:02:16;94744.47;;;3.31;100.00
54038;BME280;39954;48.844;9.726;2023-12-22T03:03:18;94728.34;;;3.27;100.00
54038;BME280;39954;48.844;9.726;2023-12-22T03:04:23;94729.28;;;3.26;100.00
54038;BME280;39954;48.844;9.726;2023-12-22T03:05:26;94735.19;;;3.28;100.00
54038;BME280;39954;48.844;9.726;2023-12-22T03:06:31;94753.31;;;3.25;100.00
54038;BME280;39954;48.844;9.726;2023-12-22T03:07:33;94783.81;;;3.31;100.00
54038;BME280;39954;48.844;9.726;2023-12-22T03:08:36;94750.13;;;3.38;100.00
54038;BME280;39954;48.844;9.726;2023-12-22T03:09:43;94749.03;;;3.42;100.00
54038;BME280;39954;48.844;9.726;2023-12-22T03:10:45;94754.78;;;3.47;100.00
54038;BME280;39954;48.844;9.726;2023-12-22T03:11:50;94732.59;;;3.46;100.00
54038;BME280;39954;48.844;9.726;2023-12-22T03:12:56;94758.94;;;3.49;100.00
54038;BME280;39954;48.844;9.726;2023-12-22T03:14:01;94740.13;;;3.49;100.00
54038;BME280;39954;48.844;9.726;2023-12-22T03:15:04;94742.75;;;3.47;100.00
54038;BME280;39954;48.844;9.726;2023-12-22T03:16:09;94744.59;;;3.45;100.00
54038;BME280;39954;48.844;9.726;2023-12-22T03:17:11;94738.78;;;3.42;100.00
54038;BME280;39954;48.844;9.726;2023-12-22T03:18:16;94750.72;;;3.43;100.00
54038;BME280;39954;48.844;9.726;2023-12-22T03:19:19;94734.56;;;3.41;100.00
54038;BME280;39954;48.844;9.726;2023-12-22T03:20:24;94739.69;;;3.41;100.00
54038;BME280;39954;48.844;9.726;2023-12-22T03:21:26;94723.50;;;3.39;100.00
54038;BME280;39954;48.844;9.726;2023-12-22T03:22:31;94714.16;;;3.38;100.00
54038;BME280;39954;48.844;9.726;2023-12-22T03:23:33;94728.75;;;3.37;100.00
54038;BME280;39954;48.844;9.726;2023-12-22T03:24:38;94722.78;;;3.36;100.00
54038;BME280;39954;48.844;9.726;2023-12-22T03:25:43;94726.25;;;3.35;100.00
54038;BME280;39954;48.844;9.726;2023-12-22T03:26:48;94741.59;;;3.37;100.00
54038;BME280;39954;48.844;9.726;2023-12-22T03:27:52;94718.38;;;3.39;100.00
54038;BME280;39954;48.844;9.726;2023-12-22T03:28:57;94703.72;;;3.41;100.00
54038;BME280;39954;48.844;9.726;2023-12-22T03:29:59;94707.13;;;3.41;100.00
54038;BME280;39954;48.844;9.726;2023-12-22T03:31:05;94695.25;;;3.39;100.00
54038;BME280;39954;48.844;9.726;2023-12-22T03:32:08;94700.50;;;3.37;100.00
54038;BME280;39954;48.844;9.726;2023-12-22T03:33:13;94698.75;;;3.38;100.00
54038;BME280;39954;48.844;9.726;2023-12-22T03:34:15;94697.94;;;3.37;100.00
54038;BME280;39954;48.844;9.726;2023-12-22T03:35:20;94705.63;;;3.37;100.00
54038;BME280;39954;48.844;9.726;2023-12-22T03:36:22;94718.38;;;3.39;100.00
54038;BME280;39954;48.844;9.726;2023-12-22T03:37:27;94712.19;;;3.43;100.00
54038;BME280;39954;48.844;9.726;2023-12-22T03:38:29;94705.31;;;3.43;100.00
54038;BME280;39954;48.844;9.726;2023-12-22T03:39:34;94719.81;;;3.44;100.00
54038;BME280;39954;48.844;9.726;2023-12-22T03:40:36;94712.03;;;3.46;100.00
54038;BME280;39954;48.844;9.726;2023-12-22T03:41:44;94711.88;;;3.49;100.00
54038;BME280;39954;48.844;9.726;2023-12-22T03:42:46;94715.28;;;3.49;100.00
54038;BME280;39954;48.844;9.726;2023-12-22T03:43:48;94710.41;;;3.61;100.00
54038;BME280;39954;48.844;9.726;2023-12-22T03:44:54;94706.25;;;3.58;100.00
54038;BME280;39954;48.844;9.726;2023-12-22T03:45:56;94737.09;;;3.58;100.00
54038;BME280;39954;48.844;9.726;2023-12-22T03:47:00;94721.91;;;3.71;100.00
54038;BME280;39954;48.844;9.726;2023-12-22T03:48:06;94717.25;;;3.77;100.00
54038;BME280;39954;48.844;9.726;2023-12-22T03:49:11;94722.22;;;3.80;100.00
54038;BME280;39954;48.844;9.726;2023-12-22T03:50:14;94717.94;;;3.81;100.00
54038;BME280;39954;48.844;9.726;2023-12-22T03:51:18;94740.97;;;3.83;100.00
54038;BME280;39954;48.844;9.726;2023-12-22T03:52:21;94742.78;;;3.80;100.00
54038;BME280;39954;48.844;9.726;2023-12-22T03:53:26;94707.81;;;3.78;100.00
54038;BME280;39954;48.844;9.726;2023-12-22T03:54:28;94699.88;;;3.83;100.00
54038;BME280;39954;48.844;9.726;2023-12-22T03:55:33;94717.09;;;3.80;100.00
54038;BME280;39954;48.844;9.726;2023-12-22T03:56:35;94728.28;;;3.79;100.00
54038;BME280;39954;48.844;9.726;2023-12-22T03:57:43;94717.34;;;3.76;100.00
54038;BME280;39954;48.844;9.726;2023-12-22T03:58:45;94730.09;;;3.77;100.00
54038;BME280;39954;48.844;9.726;2023-12-22T03:59:50;94713.09;;;3.75;100.00
54038;BME280;39954;48.844;9.726;2023-12-22T04:00:52;94727.53;;;3.77;100.00
54038;BME280;39954;48.844;9.726;2023-12-22T04:01:57;94737.09;;;3.75;100.00
54038;BME280;39954;48.844;9.726;2023-12-22T04:03:03;94754.06;;;3.78;100.00
54038;BME280;39954;48.844;9.726;2023-12-22T04:04:08;94730.88;;;3.79;100.00
54038;BME280;39954;48.844;9.726;2023-12-22T04:05:11;94732.34;;;3.84;100.00
54038;BME280;39954;48.844;9.726;2023-12-22T04:06:16;94734.19;;;3.81;100.00
54038;BME280;39954;48.844;9.726;2023-12-22T04:07:18;94731.63;;;3.81;100.00
54038;BME280;39954;48.844;9.726;2023-12-22T04:08:23;94737.50;;;3.84;100.00
54038;BME280;39954;48.844;9.726;2023-12-22T04:09:25;94751.34;;;3.81;100.00
54038;BME280;39954;48.844;9.726;2023-12-22T04:10:30;94733.22;;;3.84;100.00
54038;BME280;39954;48.844;9.726;2023-12-22T04:11:32;94727.97;;;3.86;100.00
54038;BME280;39954;48.844;9.726;2023-12-22T04:12:43;94757.50;;;3.94;100.00
54038;BME280;39954;48.844;9.726;2023-12-22T04:13:46;94741.25;;;3.94;100.00
54038;BME280;39954;48.844;9.726;2023-12-22T04:14:51;94736.22;;;3.92;100.00
54038;BME280;39954;48.844;9.726;2023-12-22T04:15:54;94742.34;;;3.90;100.00
54038;BME280;39954;48.844;9.726;2023-12-22T04:16:59;94751.53;;;3.94;100.00
54038;BME280;39954;48.844;9.726;2023-12-22T04:18:01;94744.75;;;3.93;100.00
54038;BME280;39954;48.844;9.726;2023-12-22T04:19:06;94742.16;;;3.93;100.00
54038;BME280;39954;48.844;9.726;2023-12-22T04:20:12;94733.03;;;3.87;100.00
54038;BME280;39954;48.844;9.726;2023-12-22T04:21:17;94740.75;;;3.87;100.00
54038;BME280;39954;48.844;9.726;2023-12-22T04:22:20;94778.53;;;3.85;100.00
54038;BME280;39954;48.844;9.726;2023-12-22T04:23:25;94744.16;;;3.88;100.00
54038;BME280;39954;48.844;9.726;2023-12-22T04:24:27;94750.94;;;3.89;100.00
54038;BME280;39954;48.844;9.726;2023-12-22T04:25:32;94741.56;;;3.88;100.00
54038;BME280;39954;48.844;9.726;2023-12-22T04:26:36;94740.75;;;3.87;100.00
54038;BME280;39954;48.844;9.726;2023-12-22T04:27:44;94748.53;;;3.86;100.00
54038;BME280;39954;48.844;9.726;2023-12-22T04:28:47;94754.44;;;3.88;100.00
54038;BME280;39954;48.844;9.726;2023-12-22T04:29:52;94755.19;;;3.90;100.00
54038;BME280;39954;48.844;9.726;2023-12-22T04:30:54;94745.13;;;3.85;100.00
54038;BME280;39954;48.844;9.726;2023-12-22T04:31:59;94759.06;;;3.81;100.00
54038;BME280;39954;48.844;9.726;2023-12-22T04:33:01;94750.59;;;3.79;100.00
54038;BME280;39954;48.844;9.726;2023-12-22T04:34:06;94763.06;;;3.69;100.00
54038;BME280;39954;48.844;9.726;2023-12-22T04:35:08;94783.06;;;3.64;100.00
54038;BME280;39954;48.844;9.726;2023-12-22T04:36:13;94774.81;;;3.57;100.00
54038;BME280;39954;48.844;9.726;2023-12-22T04:37:18;94752.00;;;3.51;100.00
54038;BME280;39954;48.844;9.726;2023-12-22T04:38:20;94773.69;;;3.46;100.00
54038;BME280;39954;48.844;9.726;2023-12-22T04:39:25;94771.44;;;3.40;100.00
54038;BME280;39954;48.844;9.726;2023-12-22T04:40:28;94755.25;;;3.38;100.00
54038;BME280;39954;48.844;9.726;2023-12-22T04:41:30;94764.31;;;3.27;100.00
54038;BME280;39954;48.844;9.726;2023-12-22T04:42:35;94776.69;;;3.19;100.00
54038;BME280;39954;48.844;9.726;2023-12-22T04:43:39;94806.16;;;3.12;100.00
54038;BME280;39954;48.844;9.726;2023-12-22T04:44:44;94793.38;;;3.10;100.00
54038;BME280;39954;48.844;9.726;2023-12-22T04:45:47;94791.03;;;3.06;100.00
54038;BME280;39954;48.844;9.726;2023-12-22T04:46:51;94780.31;;;2.98;100.00
54038;BME280;39954;48.844;9.726;2023-12-22T04:47:54;94801.72;;;2.97;100.00
54038;BME280;39954;48.844;9.726;2023-12-22T04:48:59;94786.56;;;2.92;100.00
54038;BME280;39954;48.844;9.726;2023-12-22T04:50:01;94822.84;;;2.84;100.00
54038;BME280;39954;48.844;9.726;2023-12-22T04:51:06;94799.06;;;2.81;100.00
54038;BME280;39954;48.844;9.726;2023-12-22T04:52:09;94798.97;;;2.82;100.00
54038;BME280;39954;48.844;9.726;2023-12-22T04:53:14;94803.50;;;2.77;100.00
54038;BME280;39954;48.844;9.726;2023-12-22T04:54:16;94815.34;;;2.80;100.00
54038;BME280;39954;48.844;9.726;2023-12-22T04:55:21;94813.56;;;2.82;100.00
54038;BME280;39954;48.844;9.726;2023-12-22T04:56:24;94794.63;;;2.84;100.00
54038;BME280;39954;48.844;9.726;2023-12-22T04:57:28;94817.72;;;2.84;100.00
54038;BME280;39954;48.844;9.726;2023-12-22T04:58:31;94793.84;;;2.82;100.00
54038;BME280;39954;48.844;9.726;2023-12-22T04:59:38;94812.63;;;2.83;100.00
54038;BME280;39954;48.844;9.726;2023-12-22T05:00:40;94824.59;;;2.84;100.00
54038;BME280;39954;48.844;9.726;2023-12-22T05:01:45;94815.91;;;2.86;100.00
54038;BME280;39954;48.844;9.726;2023-12-22T05:02:47;94810.00;;;2.84;100.00
54038;BME280;39954;48.844;9.726;2023-12-22T05:03:53;94810.78;;;2.86;100.00
54038;BME280;39954;48.844;9.726;2023-12-22T05:04:56;94794.69;;;2.83;100.00
54038;BME280;39954;48.844;9.726;2023-12-22T05:06:01;94801.50;;;2.84;100.00
54038;BME280;39954;48.844;9.726;2023-12-22T05:07:03;94800.72;;;2.82;100.00
54038;BME280;39954;48.844;9.726;2023-12-22T05:08:08;94816.06;;;2.83;100.00
54038;BME280;39954;48.844;9.726;2023-12-22T05:09:12;94809.09;;;2.85;100.00
54038;BME280;39954;48.844;9.726;2023-12-22T05:10:18;94796.13;;;2.88;100.00
54038;BME280;39954;48.844;9.726;2023-12-22T05:11:20;94785.84;;;2.88;100.00
54038;BME280;39954;48.844;9.726;2023-12-22T05:12:25;94815.75;;;2.89;100.00
54038;BME280;39954;48.844;9.726;2023-12-22T05:13:27;94781.50;;;2.90;100.00
54038;BME280;39954;48.844;9.726;2023-12-22T05:14:32;94807.09;;;2.92;100.00
54038;BME280;39954;48.844;9.726;2023-12-22T05:15:37;94800.22;;;2.92;100.00
54038;BME280;39954;48.844;9.726;2023-12-22T05:16:41;94810.13;;;3.00;100.00
54038;BME280;39954;48.844;9.726;2023-12-22T05:17:44;94798.03;;;3.02;100.00
54038;BME280;39954;48.844;9.726;2023-12-22T05:18:49;94777.59;;;3.01;100.00
54038;BME280;39954;48.844;9.726;2023-12-22T05:19:51;94795.19;;;3.08;100.00
54038;BME280;39954;48.844;9.726;2023-12-22T05:20:56;94802.03;;;3.08;100.00
54038;BME280;39954;48.844;9.726;2023-12-22T05:21:58;94793.38;;;3.10;100.00
54038;BME280;39954;48.844;9.726;2023-12-22T05:23:03;94812.94;;;3.13;100.00
54038;BME280;39954;48.844;9.726;2023-12-22T05:24:05;94798.28;;;3.15;100.00
54038;BME280;39954;48.844;9.726;2023-12-22T05:25:12;94818.47;;;3.23;100.00
54038;BME280;39954;48.844;9.726;2023-12-22T05:26:17;94831.38;;;3.21;100.00
54038;BME280;39954;48.844;9.726;2023-12-22T05:27:22;94827.00;;;3.23;100.00
54038;BME280;39954;48.844;9.726;2023-12-22T05:28:24;94822.63;;;3.25;100.00
54038;BME280;39954;48.844;9.726;2023-12-22T05:29:29;94830.34;;;3.25;100.00
54038;BME280;39954;48.844;9.726;2023-12-22T05:30:31;94823.38;;;3.27;100.00
54038;BME280;39954;48.844;9.726;2023-12-22T05:31:36;94825.09;;;3.27;100.00
54038;BME280;39954;48.844;9.726;2023-12-22T05:32:42;94834.41;;;3.29;100.00
54038;BME280;39954;48.844;9.726;2023-12-22T05:33:46;94853.81;;;3.35;100.00
54038;BME280;39954;48.844;9.726;2023-12-22T05:34:51;94828.97;;;3.35;100.00
54038;BME280;39954;48.844;9.726;2023-12-22T05:35:53;94854.59;;;3.37;100.00
54038;BME280;39954;48.844;9.726;2023-12-22T05:36:58;94825.34;;;3.40;100.00
54038;BME280;39954;48.844;9.726;2023-12-22T05:38:00;94833.78;;;3.42;100.00
54038;BME280;39954;48.844;9.726;2023-12-22T05:39:05;94812.50;;;3.40;100.00
54038;BME280;39954;48.844;9.726;2023-12-22T05:40:10;94819.41;;;3.39;100.00